• Join FlightAware (Why Join?)
  • Login
  • US Flag 
12:52AM EST


 

Airport Tracker/Info


-or-


 

Live Flight TrackerFlight Track Log ✈ FIN873 ✈ 08-May-2013 ✈ EFHK / HEL - LFPG / CDG

Flight Track Log - Related Links

Times and Time Zones

All times are in EDT time to prevent confusion due to time zone crossing. See the FIN873 flight status page for this flight to view local times or setup timezone preferences in your user account.

Time Position Orientation Groundspeed Altitude Reporting Facility
EDT Latitude Longitude Course Direction KTS MPH feet Rate Location/Type
09:21AM 60.1514 24.4223 239° Southwest  Level Estimated
09:22AM 60.0956 24.2432 238° Southwest  Level Estimated
09:23AM 60.0396 24.0646 238° Southwest  Level Estimated
09:24AM 59.9834 23.8867 238° Southwest  Level Estimated
09:25AM 59.9269 23.7094 238° Southwest  Level Estimated
09:26AM 59.8695 23.5305 237° Southwest  Level Estimated
09:27AM 59.8118 23.3522 237° Southwest  Level Estimated
09:28AM 59.7539 23.1745 237° Southwest  Level Estimated
09:29AM 59.6958 22.9975 237° Southwest  Level Estimated
09:30AM 59.6374 22.8210 237° Southwest  Level Estimated
09:31AM 59.5788 22.6452 237° Southwest  Level Estimated
09:32AM 59.5199 22.4700 237° Southwest  Level Estimated
09:33AM 59.4608 22.2954 236° Southwest  Level Estimated
09:34AM 59.4015 22.1214 236° Southwest  Level Estimated
09:35AM 59.3419 21.9480 236° Southwest  Level Estimated
09:36AM 59.2822 21.7752 236° Southwest  Level Estimated
09:37AM 59.2221 21.6030 236° Southwest  Level Estimated
09:38AM 59.1619 21.4315 236° Southwest  Level Estimated
09:39AM 59.1014 21.2605 235° Southwest  Level Estimated
09:40AM 59.0407 21.0901 235° Southwest  Level Estimated
09:41AM 58.9798 20.9204 235° Southwest  Level Estimated
09:42AM 58.9187 20.7512 235° Southwest  Level Estimated
09:43AM 58.8574 20.5827 235° Southwest  Level Estimated
09:44AM 58.7958 20.4147 235° Southwest  Level Estimated
09:45AM 58.7340 20.2473 235° Southwest  Level Estimated
09:46AM 58.6720 20.0806 234° Southwest  Level Estimated
09:47AM 58.6098 19.9144 234° Southwest  Level Estimated
09:48AM 58.5474 19.7488 234° Southwest  Level Estimated
09:49AM 58.4847 19.5838 234° Southwest  Level Estimated
09:50AM 58.4219 19.4194 234° Southwest  Level Estimated
09:51AM 58.3588 19.2556 234° Southwest  Level Estimated
09:52AM 58.2955 19.0923 234° Southwest  Level Estimated
09:53AM 58.2321 18.9297 233° Southwest  Level Estimated
09:54AM 58.1684 18.7676 233° Southwest  Level Estimated
09:55AM 58.1045 18.6061 233° Southwest  Level Estimated
09:56AM 58.0404 18.4452 233° Southwest  Level Estimated
09:57AM 57.9761 18.2849 233° Southwest  Level Estimated
09:58AM 57.9116 18.1251 233° Southwest  Level Estimated
09:59AM 57.8469 17.9659 233° Southwest  Level Estimated
10:00AM 57.7820 17.8073 233° Southwest  Level Estimated
10:01AM 57.7169 17.6493 232° Southwest  Level Estimated
10:02AM 57.6516 17.4918 232° Southwest  Level Estimated
10:03AM 57.5861 17.3349 232° Southwest  Level Estimated
10:04AM 57.5204 17.1785 232° Southwest  Level Estimated
10:05AM 57.4546 17.0227 232° Southwest  Level Estimated
10:06AM 57.3885 16.8675 232° Southwest  Level Estimated
10:07AM 57.3223 16.7129 232° Southwest  Level Estimated
10:08AM 57.2558 16.5588 231° Southwest  Level Estimated
10:09AM 57.1892 16.4052 231° Southwest  Level Estimated
10:10AM 57.1224 16.2522 231° Southwest  Level Estimated
10:11AM 57.0554 16.0998 231° Southwest  Level Estimated
10:12AM 56.9882 15.9479 231° Southwest  Level Estimated
10:13AM 56.9208 15.7965 231° Southwest  Level Estimated
10:14AM 56.8533 15.6457 231° Southwest  Level Estimated
10:15AM 56.7855 15.4955 231° Southwest  Level Estimated
10:16AM 56.7176 15.3458 230° Southwest  Level Estimated
10:17AM 56.6495 15.1966 230° Southwest  Level Estimated
10:18AM 56.5813 15.0480 230° Southwest  Level Estimated
10:19AM 56.5128 14.8999 230° Southwest  Level Estimated
10:20AM 56.4442 14.7523 230° Southwest  Level Estimated
10:21AM 56.3754 14.6053 230° Southwest  Level Estimated
10:22AM 56.3064 14.4588 230° Southwest  Level Estimated
10:23AM 56.2373 14.3128 230° Southwest  Level Estimated
10:24AM 56.1680 14.1674 229° Southwest  Level Estimated
10:25AM 56.0985 14.0224 229° Southwest  Level Estimated
10:26AM 56.0288 13.8780 229° Southwest  Level Estimated
10:27AM 55.9590 13.7342 229° Southwest  Level Estimated
10:28AM 55.8890 13.5908 229° Southwest  Level Estimated
10:29AM 55.8189 13.4480 229° Southwest  Level Estimated
10:30AM 55.7486 13.3056 229° Southwest  Level Estimated
10:31AM 55.6781 13.1638 229° Southwest  Level Estimated
10:32AM 55.6074 13.0225 229° Southwest  Level Estimated
10:33AM 55.5366 12.8817 228° Southwest  Level Estimated
10:34AM 55.4657 12.7414 228° Southwest  Level Estimated
10:35AM 55.3945 12.6017 228° Southwest  Level Estimated
10:36AM 55.3232 12.4624 228° Southwest  Level Estimated
10:37AM 55.2518 12.3236 228° Southwest  Level Estimated
10:38AM 55.1802 12.1853 228° Southwest  Level Estimated
10:39AM 55.1084 12.0475 228° Southwest  Level Estimated
10:40AM 55.0365 11.9102 228° Southwest  Level Estimated
10:41AM 54.9645 11.7734 227° Southwest  Level Estimated
10:42AM 54.8923 11.6371 227° Southwest  Level Estimated
10:43AM 54.8199 11.5013 227° Southwest  Level Estimated
10:44AM 54.7474 11.3660 227° Southwest  Level Estimated
10:45AM 54.6747 11.2311 227° Southwest  Level Estimated
10:46AM 54.6019 11.0968 227° Southwest  Level Estimated
10:47AM 54.5289 10.9629 227° Southwest  Level Estimated
10:48AM 54.4558 10.8295 227° Southwest  Level Estimated
10:49AM 54.3825 10.6965 227° Southwest  Level Estimated
10:50AM 54.3091 10.5641 226° Southwest  Level Estimated
10:51AM 54.2356 10.4321 226° Southwest  Level Estimated
10:52AM 54.1619 10.3006 226° Southwest  Level Estimated
10:53AM 54.0880 10.1695 226° Southwest  Level Estimated
10:54AM 54.0140 10.0390 226° Southwest  Level Estimated
10:55AM 53.9399 9.9088 226° Southwest  Level Estimated
10:56AM 53.8657 9.7792 226° Southwest  Level Estimated
10:57AM 53.7913 9.6500 226° Southwest  Level Estimated
10:58AM 53.7167 9.5213 226° Southwest  Level Estimated
10:59AM 53.6420 9.3930 226° Southwest  Level Estimated
11:00AM 53.5672 9.2652 225° Southwest  Level Estimated
11:01AM 53.4923 9.1378 225° Southwest  Level Estimated
11:02AM 53.4172 9.0108 225° Southwest  Level Estimated
11:03AM 53.3420 8.8844 225° Southwest  Level Estimated
11:04AM 53.2666 8.7583 225° Southwest  Level Estimated
11:05AM 53.1912 8.6327 225° Southwest  Level Estimated
11:06AM 53.1155 8.5076 225° Southwest  Level Estimated
11:07AM 53.0398 8.3829 225° Southwest  Level Estimated
11:08AM 52.9639 8.2586 225° Southwest  Level Estimated
11:09AM 52.8879 8.1348 225° Southwest  Level Estimated
11:10AM 52.8113 8.0106 224° Southwest  Level Estimated
11:11AM 52.7345 7.8869 224° Southwest  Level Estimated
11:12AM 52.6577 7.7636 224° Southwest  Level Estimated
11:13AM 52.5807 7.6407 224° Southwest  Level Estimated
11:14AM 52.5036 7.5183 224° Southwest  Level Estimated
11:15AM 52.4263 7.3962 224° Southwest  Level Estimated
11:16AM 52.3489 7.2747 224° Southwest  Level Estimated
11:17AM 52.2714 7.1535 224° Southwest  Level Estimated
11:18AM 52.1938 7.0328 224° Southwest  Level Estimated
11:19AM 52.1161 6.9125 224° Southwest  Level Estimated
11:20AM 52.0382 6.7926 223° Southwest  Level Estimated
11:21AM 51.9602 6.6731 223° Southwest  Level Estimated
11:22AM 51.8821 6.5541 223° Southwest  Level Estimated
11:23AM 51.8038 6.4354 223° Southwest  Level Estimated
11:24AM 51.7255 6.3172 223° Southwest  Level Estimated
11:25AM 51.6470 6.1994 223° Southwest  Level Estimated
11:26AM 51.5685 6.0819 223° Southwest  Level Estimated
11:27AM 51.4897 5.9649 223° Southwest  Level Estimated
11:28AM 51.4109 5.8483 223° Southwest  Level Estimated
11:29AM 51.3320 5.7321 223° Southwest  Level Estimated
11:30AM 51.2529 5.6163 223° Southwest  Level Estimated
11:31AM 51.1738 5.5009 222° Southwest  Level Estimated
11:32AM 51.0945 5.3859 222° Southwest  Level Estimated
11:33AM 51.0151 5.2713 222° Southwest  Level Estimated
11:34AM 50.9356 5.1570 222° Southwest  Level Estimated
11:35AM 50.8560 5.0432 222° Southwest  Level Estimated
11:36AM 50.7763 4.9297 222° Southwest  Level Estimated
11:37AM 50.6965 4.8167 222° Southwest  Level Estimated
11:38AM 50.6165 4.7040 222° Southwest  Level Estimated
11:39AM 50.5365 4.5917 222° Southwest  Level Estimated
11:40AM 50.4563 4.4798 222° Southwest  Level Estimated
11:41AM 50.3761 4.3682 222° Southwest  Level Estimated
11:42AM 50.2957 4.2571 221° Southwest  Level Estimated
11:43AM 50.2152 4.1463 221° Southwest  Level Estimated
11:44AM 50.1347 4.0359 221° Southwest  Level Estimated
11:45AM 50.0540 3.9259 221° Southwest  Level Estimated
11:46AM 49.9732 3.8162 221° Southwest  Level Estimated
11:47AM 49.8923 3.7069 221° Southwest  Level Estimated
11:48AM 49.8113 3.5979 221° Southwest  Level Estimated
11:49AM 49.7302 3.4894 221° Southwest  Level Estimated
11:50AM 49.6490 3.3812 221° Southwest  Level Estimated
11:51AM 49.5677 3.2733 221° Southwest  Level Estimated
11:52AM 49.4863 3.1658 221° Southwest  Level Estimated
11:53AM 49.4048 3.0587 221° Southwest  Level Estimated
11:54AM 49.3232 2.9519 220° Southwest  Level Estimated
11:55AM 49.2416 2.8455 220° Southwest  Level Estimated
11:56AM 49.1598 2.7394 220° Southwest  Level Estimated
11:57AM 49.0779 2.6337 220° Southwest  Level Estimated
11:58AM 49.0128 2.5500 220° Southwest  Level Estimated
11:59AM 49.0128 2.5500 180° South  Level Estimated
12:00PM 49.0128 2.5500 180° South  Level Estimated
12:01PM 49.0128 2.5500 180° South  Level Estimated
12:02PM 49.0128 2.5500 180° South  Level Estimated
12:03PM 49.0128 2.5500 180° South  Level Estimated
12:04PM 49.0128 2.5500 180° South  Level Estimated
12:05PM 49.0128 2.5500 180° South  Level Estimated
12:06PM 49.0128 2.5500 180° South  Level Estimated
12:07PM 49.0128 2.5500 180° South  Level Estimated
12:08PM 49.0128 2.5500 180° South  Level Estimated
12:09PM 49.0128 2.5500 180° South  Level Estimated
12:10PM 49.0128 2.5500 180° South  Level Estimated
12:11PM 49.0128 2.5500 180° South  Level Estimated
12:12PM 49.0128 2.5500 180° South  Level Estimated
12:13PM 49.0128 2.5500 180° South  Level Estimated